createdAt,value
2019-04-23T08:14:26.405Z,44.58
2019-04-23T08:17:00.697Z,44.25
2019-04-23T08:19:45.652Z,43.84
2019-04-23T08:22:12.799Z,43.57
2019-04-23T08:27:18.616Z,29.69
2019-04-23T08:29:52.585Z,22.27
2019-04-23T08:32:19.393Z,20.89
2019-04-23T08:37:25.519Z,20.72
2019-04-23T08:39:46.906Z,20.91
2019-04-23T08:45:10.590Z,21.39
2019-04-23T08:52:27.183Z,22.16
2019-04-23T08:57:26.871Z,21.60
2019-04-23T08:59:58.871Z,21.79
2019-04-23T09:05:02.464Z,21.63
2019-04-23T09:09:56.676Z,21.73
2019-04-23T09:12:28.619Z,21.48
2019-04-23T09:15:01.700Z,21.31
2019-04-23T09:17:26.642Z,20.41
2019-04-23T09:20:11.868Z,20.36
2019-04-23T09:22:33.428Z,20.58
2019-04-23T09:24:55.752Z,21.01
2019-04-23T09:27:30.919Z,20.76
2019-04-23T09:32:36.351Z,19.56
2019-04-23T09:40:56.072Z,20.30
2019-04-23T09:43:08.887Z,20.38
2019-04-23T09:45:57.514Z,20.65
2019-04-23T09:48:04.761Z,20.88
2019-04-23T09:50:36.629Z,20.80
2019-04-23T10:03:01.604Z,20.97
2019-04-23T10:05:21.895Z,21.25
2019-04-23T10:07:50.906Z,21.33
2019-04-23T10:10:10.384Z,21.32
2019-04-23T10:12:39.825Z,21.24
2019-04-23T10:15:13.815Z,21.13
2019-04-23T10:17:38.077Z,21.36
2019-04-23T10:20:06.739Z,21.14
2019-04-23T10:22:37.589Z,20.97
2019-04-23T10:25:04.892Z,20.90
2019-04-23T10:27:32.959Z,20.85
2019-04-23T10:30:01.750Z,20.65
2019-04-23T10:32:31.606Z,20.38
2019-04-23T10:35:11.911Z,20.16
2019-04-23T10:37:40.289Z,19.82
2019-04-23T10:40:05.395Z,19.84
2019-04-23T10:42:34.442Z,19.84
2019-04-23T10:45:19.326Z,19.49
2019-04-23T10:50:46.147Z,19.47
2019-04-23T10:53:26.318Z,19.30
2019-04-23T10:58:23.119Z,18.77
2019-04-23T11:00:53.424Z,18.94
2019-04-23T11:03:32.117Z,18.94
2019-04-23T11:06:06.858Z,18.46
2019-04-23T11:08:18.929Z,18.16
2019-04-23T11:10:50.460Z,17.87
2019-04-23T11:13:25.763Z,17.73
2019-04-23T11:16:13.379Z,17.90
2019-04-23T11:18:24.109Z,17.06
2019-04-23T11:20:56.402Z,17.00
2019-04-23T11:23:27.530Z,16.87
2019-04-23T11:25:49.073Z,16.63
2019-04-23T11:30:46.427Z,16.17
2019-04-23T11:33:22.153Z,16.28
2019-04-23T11:40:54.304Z,16.12
2019-04-23T11:43:28.143Z,16.03
2019-04-23T11:45:53.952Z,15.13
2019-04-23T11:51:43.568Z,15.93
2019-04-23T11:53:27.727Z,16.16
2019-04-23T11:56:02.788Z,16.49
2019-04-23T12:01:24.463Z,16.66
2019-04-23T12:03:56.239Z,16.33
2019-04-23T12:06:31.290Z,15.81
2019-04-23T12:09:08.051Z,15.82
2019-04-23T12:14:37.267Z,14.77
2019-04-23T12:22:01.462Z,13.70
2019-04-23T12:25:00.132Z,13.59
2019-04-23T12:27:01.513Z,13.74
2019-04-23T12:29:33.225Z,13.33
2019-04-23T12:32:35.562Z,13.65
2019-04-23T12:34:52.842Z,13.49
2019-04-23T12:37:27.086Z,13.34
2019-04-23T12:39:51.166Z,13.01
2019-04-23T12:42:43.542Z,13.21
2019-04-23T12:47:31.136Z,13.75
2019-04-23T12:50:13.678Z,13.98
2019-04-23T12:52:19.607Z,14.09
2019-04-23T12:54:59.004Z,13.92
2019-04-23T12:57:17.975Z,13.62
2019-04-23T13:02:25.267Z,12.79
2019-04-23T13:04:48.749Z,12.50
2019-04-23T13:07:25.789Z,12.20
2019-04-23T13:09:53.621Z,12.05
2019-04-23T13:12:30.784Z,12.51
2019-04-23T13:14:53.124Z,12.25
2019-04-23T13:22:23.958Z,12.58
2019-04-23T13:24:57.808Z,12.42
2019-04-23T13:32:48.502Z,12.07
2019-04-23T13:35:28.154Z,12.41
2019-04-23T13:40:17.641Z,12.44
2019-04-23T13:42:45.317Z,12.18
2019-04-23T13:45:35.293Z,12.04
2019-04-23T13:50:42.164Z,11.71
2019-04-23T13:55:09.072Z,11.46
2019-04-23T13:58:02.669Z,11.50
2019-04-23T14:00:22.144Z,11.45
2019-04-23T14:02:42.374Z,11.37
2019-04-23T14:05:26.810Z,11.20
2019-04-23T14:10:39.644Z,11.29
2019-04-23T14:13:23.694Z,11.23
2019-04-23T14:18:20.876Z,11.39
2019-04-23T14:20:28.049Z,11.74
2019-04-23T14:25:29.397Z,12.23
2019-04-23T14:28:05.633Z,11.99
2019-04-23T14:33:00.974Z,12.16
2019-04-23T14:38:16.403Z,12.02
2019-04-23T14:40:35.544Z,12.05
2019-04-23T14:43:07.373Z,12.08
2019-04-23T14:53:16.154Z,11.86
2019-04-23T14:58:18.238Z,11.92
2019-04-23T15:00:43.603Z,11.99
2019-04-23T15:03:25.329Z,11.82
2019-04-23T15:05:45.077Z,11.90
2019-04-23T15:08:12.031Z,11.86
2019-04-23T15:10:41.115Z,11.77
2019-04-23T15:13:17.623Z,11.75
2019-04-23T15:15:44.102Z,11.78
2019-04-23T15:18:37.819Z,11.78
2019-04-23T15:21:27.727Z,11.97
2019-04-23T15:23:51.420Z,11.97
2019-04-23T15:27:02.365Z,12.08
2019-04-23T15:28:10.308Z,11.90
2019-04-23T15:31:10.014Z,11.82
2019-04-23T15:33:45.020Z,12.03
2019-04-23T15:36:25.248Z,12.01
2019-04-23T15:38:45.415Z,12.27
2019-04-23T15:41:07.439Z,12.38
2019-04-23T15:43:46.852Z,12.57
2019-04-23T15:46:12.890Z,12.61
2019-04-23T15:49:01.524Z,12.91
2019-04-23T15:51:11.820Z,13.29
2019-04-23T15:53:35.242Z,13.70
2019-04-23T15:56:11.753Z,14.04
2019-04-23T15:58:46.216Z,14.41
2019-04-23T16:01:17.857Z,14.76
2019-04-23T16:03:15.080Z,15.23
2019-04-23T16:05:44.623Z,15.71
2019-04-23T16:08:48.084Z,16.15
2019-04-23T16:11:25.607Z,16.97
2019-04-23T16:13:55.599Z,17.73
2019-04-23T16:16:14.320Z,18.99
2019-04-23T16:19:02.131Z,19.35
2019-04-23T16:21:35.899Z,20.19
2019-04-23T16:24:00.928Z,21.12
2019-04-23T16:26:32.365Z,21.67
2019-04-23T16:31:38.046Z,22.77
2019-04-23T16:34:06.848Z,23.18
2019-04-23T16:36:31.954Z,23.73
2019-04-23T16:39:07.489Z,24.34
2019-04-23T16:41:42.303Z,25.03
2019-04-23T16:44:14.223Z,25.48
2019-04-23T16:46:33.915Z,26.05
2019-04-23T16:51:32.356Z,26.88
2019-04-23T16:54:10.025Z,27.22
2019-04-23T16:56:57.209Z,27.54
2019-04-23T17:01:35.357Z,29.38
2019-04-23T17:04:13.671Z,29.43
2019-04-23T17:06:38.530Z,29.83
2019-04-23T17:11:49.061Z,30.19
2019-04-23T17:14:16.297Z,30.66
2019-04-23T17:16:47.425Z,30.61
2019-04-23T17:21:36.656Z,31.27
2019-04-23T17:24:21.208Z,31.47
2019-04-23T17:26:52.738Z,31.35
2019-04-23T17:29:18.623Z,31.54
2019-04-23T17:31:38.267Z,31.54
2019-04-23T17:34:23.728Z,31.92
2019-04-23T17:39:41.248Z,32.47
2019-04-23T17:49:55.647Z,32.24
2019-04-23T17:52:21.982Z,32.05
2019-04-23T17:54:50.162Z,32.05
2019-04-23T17:57:26.024Z,31.46
2019-04-23T18:00:08.444Z,31.34
2019-04-23T18:02:49.379Z,31.67
2019-04-23T18:07:32.327Z,31.80
2019-04-23T18:10:02.588Z,31.69
2019-04-23T18:12:37.229Z,31.74
2019-04-23T18:14:52.235Z,31.68
2019-04-23T18:17:27.005Z,32.63
2019-04-23T18:19:56.367Z,32.63
2019-04-23T18:22:29.547Z,32.22
2019-04-23T18:27:48.247Z,32.34
2019-04-23T18:30:20.395Z,32.67
2019-04-23T18:33:37.984Z,32.81
2019-04-23T18:35:37.803Z,32.98
2019-04-23T18:38:05.433Z,33.43
2019-04-23T18:40:40.388Z,33.39
2019-04-23T18:48:42.239Z,33.61
2019-04-23T18:51:06.301Z,33.81
2019-04-23T18:53:40.738Z,33.82
2019-04-23T18:58:33.719Z,33.92
2019-04-23T19:01:10.712Z,33.92
2019-04-23T19:03:48.099Z,34.21
2019-04-23T19:06:32.002Z,34.47
2019-04-23T19:09:02.856Z,34.84
2019-04-23T19:11:47.578Z,34.75
2019-04-23T19:14:07.818Z,35.27
2019-04-23T19:16:45.517Z,35.42
2019-04-23T19:19:10.950Z,35.20
2019-04-23T19:21:57.259Z,35.25
2019-04-23T19:24:03.476Z,35.14
2019-04-23T19:27:03.578Z,35.11
2019-04-23T19:29:13.055Z,34.97
2019-04-23T19:34:24.546Z,34.89
2019-04-23T19:39:19.342Z,34.93
2019-04-23T19:44:10.336Z,34.96
2019-04-23T19:46:58.334Z,34.73
2019-04-23T19:51:49.392Z,34.80
2019-04-23T19:54:25.201Z,34.96
2019-04-23T19:56:53.685Z,34.83
2019-04-23T19:59:15.356Z,34.82
2019-04-23T20:01:46.920Z,34.72
2019-04-23T20:04:25.749Z,34.65
2019-04-23T20:09:30.746Z,34.48
2019-04-23T20:11:50.937Z,34.45
2019-04-23T20:14:12.157Z,34.55
2019-04-23T20:19:20.947Z,35.18
2019-04-23T20:21:52.464Z,35.02
2019-04-23T20:26:51.466Z,35.06
2019-04-23T20:29:40.728Z,34.92
2019-04-23T20:34:40.267Z,35.24
2019-04-23T20:36:53.264Z,35.14
2019-04-23T20:42:11.001Z,35.09
2019-04-23T20:47:06.126Z,34.57
2019-04-23T20:49:44.199Z,34.80
2019-04-23T20:54:42.482Z,34.59
2019-04-23T20:57:30.555Z,34.59
2019-04-23T20:59:56.379Z,34.46
2019-04-23T21:02:39.704Z,34.40
2019-04-23T21:05:50.001Z,34.23
2019-04-23T21:07:28.309Z,34.03
2019-04-23T21:10:16.105Z,33.89
2019-04-23T21:12:41.739Z,33.89
2019-04-23T21:17:33.315Z,33.89
2019-04-23T21:19:59.814Z,33.68
2019-04-23T21:22:20.514Z,33.77
2019-04-23T21:27:35.474Z,33.76
2019-04-23T21:30:00.640Z,33.68
2019-04-23T21:32:33.373Z,33.90
2019-04-23T21:35:05.227Z,33.84
2019-04-23T21:37:33.720Z,33.94
2019-04-23T21:40:28.602Z,34.29
2019-04-23T21:43:03.736Z,34.43
2019-04-23T21:45:25.858Z,34.77
2019-04-23T21:48:00.564Z,34.69
2019-04-23T21:52:54.473Z,35.13
2019-04-23T21:55:36.487Z,35.23
2019-04-23T21:58:01.374Z,35.08
2019-04-23T22:00:24.282Z,35.11
2019-04-23T22:05:24.300Z,35.04
2019-04-23T22:10:47.734Z,35.05
2019-04-23T22:13:04.104Z,35.03
2019-04-23T22:15:22.197Z,35.12
2019-04-23T22:17:49.634Z,35.00
2019-04-23T22:25:23.744Z,34.41
2019-04-23T22:27:54.528Z,34.61
2019-04-23T22:33:02.586Z,34.42
2019-04-23T22:35:24.440Z,34.51
2019-04-23T22:38:02.511Z,34.97
2019-04-23T22:40:18.123Z,34.81
2019-04-23T22:43:09.532Z,34.85
2019-04-23T22:45:43.093Z,34.99
2019-04-23T22:47:55.034Z,35.07
2019-04-23T22:50:29.653Z,35.12
2019-04-23T22:52:54.054Z,35.15
2019-04-23T22:55:40.824Z,35.20
2019-04-23T23:00:33.576Z,35.80
2019-04-23T23:02:58.290Z,36.09
2019-04-23T23:05:44.372Z,36.10
2019-04-23T23:08:03.023Z,36.15
2019-04-23T23:10:31.860Z,36.27
2019-04-23T23:18:16.603Z,36.02
2019-04-23T23:23:05.647Z,37.01
2019-04-23T23:25:25.523Z,37.75
2019-04-23T23:28:55.395Z,38.28
2019-04-23T23:30:33.770Z,38.92
2019-04-23T23:32:55.589Z,39.43
2019-04-23T23:35:27.713Z,40.11
2019-04-23T23:38:02.585Z,40.44
2019-04-23T23:40:25.501Z,40.90
2019-04-23T23:43:05.951Z,41.47
2019-04-23T23:45:25.255Z,42.25
2019-04-23T23:50:27.077Z,42.61
2019-04-23T23:53:13.930Z,42.71
2019-04-23T23:55:25.039Z,42.95
2019-04-23T23:58:04.771Z,42.81
